Time;durP1;ratioP1;P1;durP2;ratioP2;P2;SDS_P1;SDS_P2;PMS_P1;PMS_P2;Temp;Humidity;BMP_temperature;BMP_pressure;BME280_temperature;BME280_humidity;BME280_pressure;Samples;Min_cycle;Max_cycle;Signal;HPM_P1;HPM_P2
2023/09/17 00:00:09;;;;;;;18.30;16.60;;;21.70;99.90;;;;;;2076777;28;20026;-72
2023/09/17 00:01:10;;;;;;;18.08;16.38;;;21.70;99.90;;;;;;2077328;28;20060;-72
2023/09/17 00:02:11;;;;;;;18.92;17.23;;;21.70;99.90;;;;;;2078041;28;20029;-72
2023/09/17 00:03:11;;;;;;;19.70;17.90;;;21.70;99.90;;;;;;2077777;28;20489;-72
2023/09/17 00:04:12;;;;;;;19.48;17.58;;;21.70;99.90;;;;;;2078957;28;20121;-72
2023/09/17 00:05:13;;;;;;;20.90;18.88;;;21.60;99.90;;;;;;2076743;28;20034;-72
2023/09/17 00:06:13;;;;;;;18.95;17.15;;;21.70;99.90;;;;;;2075290;28;20497;-72
2023/09/17 00:07:14;;;;;;;21.10;18.90;;;21.60;99.90;;;;;;2069791;28;20034;-72
2023/09/17 00:08:14;;;;;;;19.90;18.10;;;21.60;99.90;;;;;;2069966;28;20030;-72
2023/09/17 00:09:17;;;;;;;18.63;16.98;;;21.60;99.90;;;;;;2077273;28;20022;-72
2023/09/17 00:10:18;;;;;;;20.08;18.05;;;21.60;99.90;;;;;;2068838;28;20038;-72
2023/09/17 00:11:18;;;;;;;20.08;18.38;;;21.60;99.90;;;;;;2068017;28;20117;-72
2023/09/17 00:12:19;;;;;;;17.67;16.08;;;21.60;99.90;;;;;;2078611;28;20060;-72
2023/09/17 00:13:20;;;;;;;19.17;17.33;;;21.60;99.90;;;;;;2078393;28;20046;-72
2023/09/17 00:14:21;;;;;;;21.20;19.23;;;21.60;99.90;;;;;;2077402;28;20033;-72
2023/09/17 00:15:23;;;;;;;20.13;18.23;;;21.60;99.90;;;;;;2078137;28;20031;-72
2023/09/17 00:16:24;;;;;;;19.67;17.95;;;21.60;99.90;;;;;;2077204;28;20038;-72
2023/09/17 00:17:25;;;;;;;19.23;17.42;;;21.50;99.90;;;;;;2076398;28;20018;-72
2023/09/17 00:18:25;;;;;;;20.73;18.92;;;21.50;99.90;;;;;;2076864;28;20113;-72
2023/09/17 00:19:27;;;;;;;20.35;18.35;;;21.50;99.90;;;;;;2077325;28;20103;-72
2023/09/17 00:20:27;;;;;;;20.67;18.67;;;21.50;99.90;;;;;;2077351;28;20024;-72
2023/09/17 00:21:28;;;;;;;20.45;18.45;;;21.50;99.90;;;;;;2076304;28;20104;-72
2023/09/17 00:22:29;;;;;;;21.00;18.85;;;21.50;99.90;;;;;;2077709;28;20034;-72
2023/09/17 00:23:30;;;;;;;19.92;17.90;;;21.40;99.90;;;;;;2078188;28;20027;-72
2023/09/17 00:24:31;;;;;;;20.38;18.48;;;21.40;99.90;;;;;;2077584;28;20029;-72
2023/09/17 00:25:31;;;;;;;20.17;18.00;;;21.40;99.90;;;;;;2079041;28;20029;-72
2023/09/17 00:26:32;;;;;;;20.05;18.35;;;21.40;99.90;;;;;;2078047;28;20026;-72
2023/09/17 00:27:33;;;;;;;19.35;17.58;;;21.40;99.90;;;;;;2076552;28;20061;-72
2023/09/17 00:28:33;;;;;;;20.17;18.30;;;21.40;99.90;;;;;;2070613;28;20022;-71
2023/09/17 00:29:34;;;;;;;19.58;17.88;;;21.40;99.90;;;;;;2070094;28;20061;-72
2023/09/17 00:30:34;;;;;;;19.90;18.00;;;21.40;99.90;;;;;;2069326;28;20492;-72
2023/09/17 00:31:35;;;;;;;20.08;17.98;;;21.40;99.90;;;;;;2069708;28;20084;-72
2023/09/17 00:32:35;;;;;;;19.70;17.65;;;21.40;99.90;;;;;;2077487;28;20022;-72
2023/09/17 00:33:36;;;;;;;20.00;18.05;;;21.30;99.90;;;;;;2078105;28;20052;-71
2023/09/17 00:34:36;;;;;;;19.25;17.45;;;21.30;99.90;;;;;;2078495;28;20025;-72
2023/09/17 00:35:37;;;;;;;20.88;18.58;;;21.30;99.90;;;;;;2077680;28;20032;-72
2023/09/17 00:36:37;;;;;;;20.40;18.55;;;21.40;99.90;;;;;;2075524;28;20026;-71
2023/09/17 00:37:38;;;;;;;19.80;17.23;;;21.40;99.90;;;;;;2075953;28;20022;-72
2023/09/17 00:38:39;;;;;;;20.23;18.15;;;21.30;99.90;;;;;;2076264;28;20092;-72
2023/09/17 00:39:40;;;;;;;19.52;17.65;;;21.30;99.90;;;;;;2078313;28;20092;-72
2023/09/17 00:40:41;;;;;;;19.70;17.83;;;21.30;99.90;;;;;;2068077;28;20037;-72
2023/09/17 00:41:42;;;;;;;19.20;17.25;;;21.30;99.90;;;;;;2068470;28;20061;-72
2023/09/17 00:42:42;;;;;;;18.73;16.95;;;21.30;99.90;;;;;;2077453;28;20029;-72
2023/09/17 00:43:43;;;;;;;19.50;17.75;;;21.30;99.90;;;;;;2076274;28;20025;-72
2023/09/17 00:44:43;;;;;;;20.02;18.23;;;21.30;99.90;;;;;;2077441;28;20370;-72
2023/09/17 00:45:44;;;;;;;19.05;17.35;;;21.30;99.90;;;;;;2069206;28;20022;-72
2023/09/17 00:46:45;;;;;;;19.27;17.55;;;21.30;99.90;;;;;;2067832;28;20022;-72
2023/09/17 00:47:46;;;;;;;18.67;17.08;;;21.30;99.90;;;;;;2076680;28;20053;-72
2023/09/17 00:48:47;;;;;;;19.50;17.70;;;21.30;99.90;;;;;;2075405;28;20030;-72
2023/09/17 00:49:48;;;;;;;18.98;17.08;;;21.30;99.90;;;;;;2077536;28;20026;-72
2023/09/17 00:50:48;;;;;;;19.08;17.15;;;21.30;99.90;;;;;;2077346;28;20034;-72
2023/09/17 00:51:49;;;;;;;18.60;17.00;;;21.30;99.90;;;;;;2076664;28;20030;-72
2023/09/17 00:52:50;;;;;;;18.83;17.13;;;21.30;99.90;;;;;;2078075;28;20049;-72
2023/09/17 00:53:52;;;;;;;17.23;15.48;;;21.30;99.90;;;;;;2075730;28;20018;-72
2023/09/17 00:54:54;;;;;;;16.40;14.90;;;21.30;99.90;;;;;;2075863;28;20022;-71
2023/09/17 00:55:55;;;;;;;16.83;15.27;;;21.30;99.90;;;;;;2078561;28;20044;-72
2023/09/17 00:56:56;;;;;;;17.92;16.33;;;21.30;99.90;;;;;;2069695;28;20042;-72
2023/09/17 00:57:58;;;;;;;19.00;17.20;;;21.30;99.90;;;;;;2071139;28;20026;-72
2023/09/17 00:58:59;;;;;;;17.30;15.70;;;21.20;99.90;;;;;;2077576;28;20784;-72
2023/09/17 01:00:02;;;;;;;19.15;17.27;;;21.30;99.90;;;;;;2078211;28;20136;-72
2023/09/17 01:01:04;;;;;;;18.15;16.35;;;21.20;99.90;;;;;;2076605;28;20100;-72
2023/09/17 01:02:05;;;;;;;16.92;15.40;;;21.20;99.90;;;;;;2077103;28;20041;-72
2023/09/17 01:03:07;;;;;;;17.52;16.02;;;21.20;99.90;;;;;;2076208;28;20033;-72
2023/09/17 01:04:08;;;;;;;17.35;15.77;;;21.20;99.90;;;;;;2075427;28;20494;-72
2023/09/17 01:05:09;;;;;;;18.88;17.08;;;21.20;99.90;;;;;;2076066;28;20085;-72
2023/09/17 01:06:12;;;;;;;16.27;14.88;;;21.20;99.90;;;;;;2077690;28;20033;-72
2023/09/17 01:07:12;;;;;;;16.85;15.23;;;21.20;99.90;;;;;;2077336;28;20485;-72
2023/09/17 01:08:13;;;;;;;18.15;16.45;;;21.20;99.90;;;;;;2077167;28;20447;-72
2023/09/17 01:09:14;;;;;;;18.73;16.95;;;21.20;99.90;;;;;;2077963;28;20396;-72
2023/09/17 01:10:15;;;;;;;18.67;16.95;;;21.20;99.90;;;;;;2075767;28;20777;-72
2023/09/17 01:11:16;;;;;;;18.15;16.55;;;21.20;99.90;;;;;;2077125;28;20041;-72
2023/09/17 01:12:17;;;;;;;18.45;16.65;;;21.20;99.90;;;;;;2077275;28;20033;-72
2023/09/17 01:13:18;;;;;;;19.15;17.40;;;21.20;99.90;;;;;;2077299;28;20033;-72
2023/09/17 01:14:19;;;;;;;16.90;15.38;;;21.20;99.90;;;;;;2076170;28;20030;-72
2023/09/17 01:15:20;;;;;;;18.45;16.75;;;21.20;99.90;;;;;;2076612;28;20107;-72
2023/09/17 01:16:22;;;;;;;19.77;17.67;;;21.20;99.90;;;;;;2077280;28;20515;-72
2023/09/17 01:17:27;;;;;;;17.77;16.08;;;21.10;99.90;;;;;;2078426;28;20431;-72
2023/09/17 01:18:28;;;;;;;18.33;16.48;;;21.10;99.90;;;;;;2077379;28;20029;-72
2023/09/17 01:19:32;;;;;;;18.40;16.80;;;21.10;99.90;;;;;;2076385;28;20017;-72
2023/09/17 01:20:50;;;;;;;18.52;16.65;;;21.10;99.90;;;;;;2076793;28;20060;-72
2023/09/17 01:21:58;;;;;;;17.73;16.02;;;21.10;99.90;;;;;;2076573;28;20068;-72
2023/09/17 01:23:07;;;;;;;19.67;17.83;;;21.10;99.90;;;;;;2077722;28;20380;-72
2023/09/17 01:24:08;;;;;;;18.02;16.33;;;21.10;99.90;;;;;;2076364;28;20030;-72
2023/09/17 01:25:36;;;;;;;18.38;16.60;;;21.00;99.90;;;;;;2076000;28;20110;-72
2023/09/17 01:26:39;;;;;;;18.90;17.00;;;21.00;99.90;;;;;;2075749;28;20056;-72
2023/09/17 01:27:40;;;;;;;16.50;15.10;;;21.00;99.90;;;;;;2075898;28;20045;-72
2023/09/17 01:28:40;;;;;;;16.67;15.07;;;21.00;99.90;;;;;;2078239;28;20029;-72
2023/09/17 01:29:42;;;;;;;17.63;15.93;;;21.00;99.90;;;;;;2067399;28;20488;-72
2023/09/17 01:30:45;;;;;;;16.45;14.90;;;21.00;99.90;;;;;;2069740;28;20018;-72
2023/09/17 01:31:46;;;;;;;17.80;16.25;;;21.00;99.90;;;;;;2076709;28;20025;-72
2023/09/17 01:32:47;;;;;;;18.17;16.48;;;21.00;99.90;;;;;;2078159;28;20030;-72
2023/09/17 01:33:48;;;;;;;16.95;15.25;;;21.00;99.90;;;;;;2077184;28;20022;-72
2023/09/17 01:34:52;;;;;;;18.52;16.73;;;21.00;99.90;;;;;;2077928;28;20033;-72
2023/09/17 01:35:59;;;;;;;17.55;15.88;;;21.00;99.90;;;;;;2076303;28;20026;-72
2023/09/17 01:37:02;;;;;;;18.45;16.83;;;21.00;99.90;;;;;;2076410;28;20033;-72
2023/09/17 01:38:06;;;;;;;18.50;16.80;;;21.00;99.90;;;;;;2078891;28;20022;-72
2023/09/17 01:39:22;;;;;;;16.17;14.77;;;21.00;99.90;;;;;;2076309;28;20044;-72
2023/09/17 01:40:23;;;;;;;19.00;17.20;;;20.90;99.90;;;;;;2077333;28;20126;-72
2023/09/17 01:41:27;;;;;;;17.77;16.27;;;20.90;99.90;;;;;;2076178;28;20817;-72
2023/09/17 01:42:28;;;;;;;17.08;15.48;;;21.00;99.90;;;;;;2076681;28;20021;-72
2023/09/17 01:43:30;;;;;;;18.10;16.60;;;20.90;99.90;;;;;;2077146;28;20013;-72
2023/09/17 01:44:32;;;;;;;17.08;15.48;;;20.90;99.90;;;;;;2075985;28;20674;-72
2023/09/17 01:45:34;;;;;;;16.10;14.52;;;20.90;99.90;;;;;;2077890;28;20553;-72
2023/09/17 01:46:37;;;;;;;16.98;15.38;;;20.90;99.90;;;;;;2076181;28;20026;-72
2023/09/17 01:47:40;;;;;;;17.23;15.65;;;20.90;99.90;;;;;;2076687;28;20017;-72
2023/09/17 01:48:42;;;;;;;15.70;14.30;;;20.90;99.90;;;;;;2076403;28;20025;-72
2023/09/17 01:49:44;;;;;;;15.75;14.35;;;20.90;99.90;;;;;;2068366;28;20084;-72
2023/09/17 01:50:47;;;;;;;17.17;15.52;;;20.90;99.90;;;;;;2066873;28;20037;-72
2023/09/17 01:51:48;;;;;;;17.13;15.38;;;20.90;99.90;;;;;;2077017;28;20029;-72
2023/09/17 01:52:49;;;;;;;17.27;15.65;;;20.90;99.90;;;;;;2077055;28;20029;-72
2023/09/17 01:53:50;;;;;;;17.50;15.85;;;20.90;99.90;;;;;;2077214;28;20025;-72
2023/09/17 01:54:51;;;;;;;22.88;17.02;;;20.90;99.90;;;;;;2078191;28;20029;-72
2023/09/17 01:55:52;;;;;;;16.00;14.55;;;20.90;99.90;;;;;;2075354;28;20041;-72
2023/09/17 01:56:53;;;;;;;17.98;16.15;;;20.90;99.90;;;;;;2077078;28;20030;-72
2023/09/17 01:57:53;;;;;;;16.65;15.10;;;21.00;99.90;;;;;;2076670;28;20124;-72
2023/09/17 01:58:54;;;;;;;18.35;16.58;;;20.90;99.90;;;;;;2069535;28;20026;-72
2023/09/17 01:59:55;;;;;;;17.60;16.10;;;20.90;99.90;;;;;;2069076;28;20425;-72
2023/09/17 02:00:56;;;;;;;17.65;15.93;;;20.90;99.90;;;;;;2076893;28;20025;-72
2023/09/17 02:01:57;;;;;;;15.98;14.57;;;20.90;99.90;;;;;;2076365;28;20021;-72
2023/09/17 02:02:57;;;;;;;17.55;15.77;;;20.90;99.90;;;;;;2078214;28;20029;-72
2023/09/17 02:03:58;;;;;;;16.98;15.38;;;20.90;99.90;;;;;;2076910;28;20469;-72
2023/09/17 02:04:58;;;;;;;18.48;16.55;;;20.90;99.90;;;;;;2077541;28;20042;-72
2023/09/17 02:05:59;;;;;;;18.90;17.00;;;20.90;99.90;;;;;;2078364;28;20564;-72
2023/09/17 02:06:59;;;;;;;19.35;17.50;;;20.90;99.90;;;;;;2077307;28;20017;-72
2023/09/17 02:08:00;;;;;;;18.05;16.45;;;20.90;99.90;;;;;;2069245;28;20108;-72
2023/09/17 02:09:02;;;;;;;18.30;16.52;;;20.90;99.90;;;;;;2067479;28;20061;-72
2023/09/17 02:10:05;;;;;;;19.08;17.15;;;20.90;99.90;;;;;;2076877;28;20029;-72
2023/09/17 02:11:06;;;;;;;18.85;17.10;;;20.90;99.90;;;;;;2075078;28;20041;-72
2023/09/17 02:12:07;;;;;;;18.55;16.65;;;20.80;99.90;;;;;;2077744;28;20032;-72
2023/09/17 02:13:07;;;;;;;17.23;15.70;;;20.80;99.90;;;;;;2068086;28;20033;-72
2023/09/17 02:14:08;;;;;;;19.73;17.88;;;20.80;99.90;;;;;;2069196;28;20022;-72
2023/09/17 02:15:12;;;;;;;17.52;15.85;;;20.80;99.90;;;;;;2075467;28;20087;-72
2023/09/17 02:16:12;;;;;;;18.08;16.38;;;20.80;99.90;;;;;;2075245;28;20029;-72
2023/09/17 02:17:14;;;;;;;18.25;16.38;;;20.80;99.90;;;;;;2076673;28;20096;-72
2023/09/17 02:18:15;;;;;;;17.98;16.23;;;20.80;99.90;;;;;;2076706;28;20032;-72
2023/09/17 02:19:16;;;;;;;18.00;16.10;;;20.80;99.90;;;;;;2075277;28;20708;-72
2023/09/17 02:20:16;;;;;;;17.88;16.08;;;20.80;99.90;;;;;;2075988;28;20136;-72
2023/09/17 02:21:17;;;;;;;18.92;17.02;;;20.80;99.90;;;;;;2075190;28;20032;-72
2023/09/17 02:22:17;;;;;;;17.13;15.52;;;20.80;99.90;;;;;;2076623;28;20041;-72
2023/09/17 02:23:18;;;;;;;18.45;16.73;;;20.80;99.90;;;;;;2076945;28;20041;-72
2023/09/17 02:24:19;;;;;;;17.35;15.75;;;20.80;99.90;;;;;;2075622;28;20030;-72
2023/09/17 02:25:20;;;;;;;16.67;15.07;;;20.80;99.90;;;;;;2074988;28;20029;-72
2023/09/17 02:26:21;;;;;;;16.65;15.05;;;20.80;99.90;;;;;;2077610;28;20038;-72
2023/09/17 02:27:22;;;;;;;16.83;15.10;;;20.80;99.90;;;;;;2077050;28;20025;-72
2023/09/17 02:28:22;;;;;;;16.83;15.10;;;20.80;99.90;;;;;;2078117;28;20136;-72
2023/09/17 02:29:23;;;;;;;16.40;14.88;;;20.80;99.90;;;;;;2076386;28;20022;-72
2023/09/17 02:30:23;;;;;;;17.17;15.48;;;20.80;99.90;;;;;;2076255;28;20591;-72
2023/09/17 02:31:24;;;;;;;16.20;14.75;;;20.80;99.90;;;;;;2075517;28;20034;-72
2023/09/17 02:32:25;;;;;;;16.98;15.32;;;20.80;99.90;;;;;;2077368;28;20060;-72
2023/09/17 02:33:26;;;;;;;15.90;14.40;;;20.80;99.90;;;;;;2076200;28;20029;-72
2023/09/17 02:34:26;;;;;;;16.58;15.07;;;20.80;99.90;;;;;;2068966;28;20087;-72
2023/09/17 02:35:27;;;;;;;14.85;13.38;;;20.80;99.90;;;;;;2069575;28;20049;-72
2023/09/17 02:36:28;;;;;;;16.90;15.07;;;20.80;99.90;;;;;;2077883;28;20040;-72
2023/09/17 02:37:29;;;;;;;16.45;14.98;;;20.80;99.90;;;;;;2067455;28;20947;-72
2023/09/17 02:38:29;;;;;;;17.30;15.50;;;20.80;99.90;;;;;;2067676;28;20022;-72
2023/09/17 02:39:30;;;;;;;17.85;16.00;;;20.80;99.90;;;;;;2074201;28;20054;-72
2023/09/17 02:40:31;;;;;;;14.93;13.52;;;20.80;99.90;;;;;;2065615;28;20045;-72
2023/09/17 02:41:31;;;;;;;16.02;14.60;;;20.70;99.90;;;;;;2067917;28;20023;-72
2023/09/17 02:42:32;;;;;;;15.93;14.43;;;20.80;99.90;;;;;;2076342;28;20654;-72
2023/09/17 02:43:36;;;;;;;15.93;14.43;;;20.80;99.90;;;;;;2076345;28;20025;-72
2023/09/17 02:44:36;;;;;;;16.90;15.32;;;20.80;99.90;;;;;;2076110;28;20115;-72
2023/09/17 02:45:37;;;;;;;16.48;14.77;;;20.70;99.90;;;;;;2077773;28;20068;-72
2023/09/17 02:46:39;;;;;;;16.90;15.40;;;20.70;99.90;;;;;;2077164;28;20106;-72
2023/09/17 02:47:40;;;;;;;16.38;14.88;;;20.70;99.90;;;;;;2076408;28;20044;-72
2023/09/17 02:48:41;;;;;;;16.13;14.43;;;20.70;99.90;;;;;;2075306;28;20026;-72
2023/09/17 02:49:41;;;;;;;16.95;15.18;;;20.70;99.90;;;;;;2076369;28;20025;-72
2023/09/17 02:50:42;;;;;;;15.95;14.45;;;20.70;99.90;;;;;;2076986;28;20054;-72
2023/09/17 02:51:42;;;;;;;16.65;15.10;;;20.70;99.90;;;;;;2076012;28;20071;-72
2023/09/17 02:52:43;;;;;;;17.02;15.23;;;20.60;99.90;;;;;;2066995;28;20022;-72
2023/09/17 02:53:44;;;;;;;15.82;14.43;;;20.60;99.90;;;;;;2068343;28;20029;-72
2023/09/17 02:54:44;;;;;;;29.80;16.95;;;20.60;99.90;;;;;;2076765;28;20024;-72
2023/09/17 02:55:45;;;;;;;16.52;14.70;;;20.60;99.90;;;;;;2066562;28;20029;-72
2023/09/17 02:56:45;;;;;;;17.00;15.40;;;20.60;99.90;;;;;;2069024;28;20069;-72
2023/09/17 02:57:48;;;;;;;17.15;15.57;;;20.60;99.90;;;;;;2077193;28;20026;-72
2023/09/17 02:58:49;;;;;;;18.63;16.88;;;20.60;99.90;;;;;;2076426;28;20025;-72
2023/09/17 02:59:49;;;;;;;16.38;15.07;;;20.60;99.90;;;;;;2075167;28;20029;-72
2023/09/17 03:00:50;;;;;;;17.27;15.68;;;20.60;99.90;;;;;;2076694;28;20025;-72
2023/09/17 03:01:51;;;;;;;18.10;16.45;;;20.60;99.90;;;;;;2076087;28;20045;-72
2023/09/17 03:02:54;;;;;;;18.17;16.30;;;20.50;99.90;;;;;;2075167;28;20357;-72
2023/09/17 03:03:54;;;;;;;17.48;15.93;;;20.50;99.90;;;;;;2075939;28;20361;-72
2023/09/17 03:04:58;;;;;;;17.05;15.50;;;20.50;99.90;;;;;;2068874;28;20076;-72
2023/09/17 03:05:59;;;;;;;18.05;16.23;;;20.50;99.90;;;;;;2068894;28;20023;-72
2023/09/17 03:06:59;;;;;;;15.85;14.45;;;20.40;99.90;;;;;;2076709;28;20032;-72
2023/09/17 03:08:00;;;;;;;17.40;15.80;;;20.40;99.90;;;;;;2076246;28;20033;-72
2023/09/17 03:09:01;;;;;;;17.92;16.08;;;20.40;99.90;;;;;;2076996;28;20033;-72
2023/09/17 03:10:02;;;;;;;17.70;15.90;;;20.40;99.90;;;;;;2076821;28;20511;-72
2023/09/17 03:11:03;;;;;;;16.48;14.80;;;20.40;99.90;;;;;;2075148;28;20391;-72
2023/09/17 03:12:04;;;;;;;16.58;15.10;;;20.40;99.90;;;;;;2076565;28;20034;-72
2023/09/17 03:13:05;;;;;;;17.20;15.60;;;20.40;99.90;;;;;;2075299;28;20072;-72
2023/09/17 03:14:05;;;;;;;18.33;16.35;;;20.40;99.90;;;;;;2075261;28;20029;-72
2023/09/17 03:15:07;;;;;;;16.75;15.25;;;20.30;99.90;;;;;;2076667;28;20065;-72
2023/09/17 03:16:08;;;;;;;17.38;15.77;;;20.40;99.90;;;;;;2076088;28;20072;-72
2023/09/17 03:17:09;;;;;;;17.70;16.00;;;20.30;99.90;;;;;;2074855;28;20032;-73
2023/09/17 03:18:10;;;;;;;17.58;15.82;;;20.30;99.90;;;;;;2067476;28;20030;-72
2023/09/17 03:19:12;;;;;;;18.83;17.05;;;20.30;99.90;;;;;;2067495;28;20537;-72
2023/09/17 03:20:22;;;;;;;18.83;17.02;;;20.30;99.90;;;;;;2076548;28;20055;-72
2023/09/17 03:21:22;;;;;;;15.93;14.50;;;20.30;99.90;;;;;;2076238;28;20547;-72
2023/09/17 03:22:23;;;;;;;17.63;16.05;;;20.30;99.90;;;;;;2076457;28;20388;-72
2023/09/17 03:23:23;;;;;;;17.35;15.55;;;20.30;99.90;;;;;;2075367;28;20030;-72
2023/09/17 03:24:24;;;;;;;18.73;16.95;;;20.30;99.90;;;;;;2076361;28;20106;-72
2023/09/17 03:25:24;;;;;;;18.08;16.27;;;20.30;99.90;;;;;;2076636;28;20033;-72
2023/09/17 03:26:25;;;;;;;18.15;16.35;;;20.40;99.90;;;;;;2076527;28;20041;-72
2023/09/17 03:27:26;;;;;;;18.00;16.40;;;20.30;99.90;;;;;;2077039;28;20465;-72
2023/09/17 03:28:27;;;;;;;17.33;15.73;;;20.30;99.90;;;;;;2076126;28;20057;-72
2023/09/17 03:29:28;;;;;;;17.25;15.65;;;20.30;99.90;;;;;;2074742;28;20035;-72
2023/09/17 03:30:28;;;;;;;16.85;15.35;;;20.30;99.90;;;;;;2077046;28;20033;-72
2023/09/17 03:31:29;;;;;;;16.90;15.25;;;20.30;99.90;;;;;;2068803;28;20026;-72
2023/09/17 03:32:30;;;;;;;17.60;16.05;;;20.30;99.90;;;;;;2068762;28;20480;-72
2023/09/17 03:33:31;;;;;;;17.95;16.25;;;20.20;99.90;;;;;;2076257;28;20108;-72
2023/09/17 03:34:32;;;;;;;17.63;16.02;;;20.30;99.90;;;;;;2076851;28;20037;-72
2023/09/17 03:35:33;;;;;;;17.83;16.02;;;20.30;99.90;;;;;;2076450;28;20018;-72
2023/09/17 03:36:37;;;;;;;17.88;16.17;;;20.20;99.90;;;;;;2077266;28;20084;-72
2023/09/17 03:37:37;;;;;;;18.58;16.80;;;20.20;99.90;;;;;;2077330;28;20029;-72
2023/09/17 03:38:38;;;;;;;19.60;16.83;;;20.20;99.90;;;;;;2074632;28;20033;-72
2023/09/17 03:39:38;;;;;;;17.17;15.65;;;20.20;99.90;;;;;;2076291;28;20049;-72
2023/09/17 03:40:39;;;;;;;19.30;17.50;;;20.20;99.90;;;;;;2076011;28;20557;-72
2023/09/17 03:41:40;;;;;;;17.45;15.95;;;20.20;99.90;;;;;;2075235;28;20121;-72
2023/09/17 03:42:42;;;;;;;18.45;16.80;;;20.20;99.90;;;;;;2077444;28;20028;-72
2023/09/17 03:43:43;;;;;;;15.75;14.25;;;20.30;99.90;;;;;;2074836;28;20026;-72
2023/09/17 03:44:43;;;;;;;17.65;15.98;;;20.20;99.90;;;;;;2067548;28;20756;-72
2023/09/17 03:45:45;;;;;;;18.35;16.58;;;20.20;99.90;;;;;;2067132;28;20033;-72
2023/09/17 03:46:45;;;;;;;18.50;16.90;;;20.20;99.90;;;;;;2076072;28;20111;-72
2023/09/17 03:47:47;;;;;;;18.48;16.67;;;20.20;99.90;;;;;;2076259;28;20244;-72
2023/09/17 03:48:47;;;;;;;18.52;16.70;;;20.20;99.90;;;;;;2068405;28;20034;-72
2023/09/17 03:49:48;;;;;;;18.33;16.58;;;20.20;99.90;;;;;;2069421;28;20022;-72
2023/09/17 03:50:49;;;;;;;18.60;16.73;;;20.20;99.90;;;;;;2074151;28;20022;-72
2023/09/17 03:51:51;;;;;;;18.48;16.55;;;20.20;99.90;;;;;;2076878;28;20587;-72
2023/09/17 03:52:54;;;;;;;17.67;16.02;;;20.20;99.90;;;;;;2076278;28;20022;-72
2023/09/17 03:53:55;;;;;;;17.80;16.10;;;20.20;99.90;;;;;;2069638;28;20843;-72
2023/09/17 03:54:56;;;;;;;19.42;17.52;;;20.20;99.90;;;;;;2068468;28;20034;-72
2023/09/17 03:55:57;;;;;;;17.30;15.52;;;20.20;99.90;;;;;;2075735;28;20079;-72
2023/09/17 03:56:57;;;;;;;18.02;15.82;;;20.20;99.90;;;;;;2075894;28;20034;-72
2023/09/17 03:57:58;;;;;;;18.75;16.77;;;20.20;99.90;;;;;;2076482;28;20025;-72
2023/09/17 03:58:59;;;;;;;17.70;16.00;;;20.10;99.90;;;;;;2076701;28;20037;-72
2023/09/17 04:00:07;;;;;;;18.67;16.90;;;20.10;99.90;;;;;;2076496;28;20017;-72
2023/09/17 04:01:08;;;;;;;17.77;16.08;;;20.10;99.90;;;;;;2074860;28;20022;-72
2023/09/17 04:02:09;;;;;;;18.60;16.75;;;20.10;99.90;;;;;;2075835;28;20030;-72
2023/09/17 04:03:09;;;;;;;17.88;16.13;;;20.10;99.90;;;;;;2075216;28;20018;-72
2023/09/17 04:04:10;;;;;;;19.02;16.70;;;20.10;99.90;;;;;;2076162;28;20029;-72
2023/09/17 04:05:12;;;;;;;18.77;16.90;;;20.10;99.90;;;;;;2074277;28;20084;-72
2023/09/17 04:06:12;;;;;;;17.17;15.57;;;20.10;99.90;;;;;;2074741;28;20025;-72
2023/09/17 04:07:13;;;;;;;19.73;16.63;;;20.10;99.90;;;;;;2075870;28;20030;-72
2023/09/17 04:08:15;;;;;;;18.63;16.92;;;20.10;99.90;;;;;;2077674;28;20029;-72
2023/09/17 04:09:16;;;;;;;19.65;17.65;;;20.10;99.90;;;;;;2077005;28;20034;-72
2023/09/17 04:10:17;;;;;;;17.40;15.70;;;20.00;99.90;;;;;;2074347;28;20029;-72
2023/09/17 04:11:19;;;;;;;16.45;14.93;;;20.10;99.90;;;;;;2075206;28;20140;-72
2023/09/17 04:12:19;;;;;;;19.02;17.17;;;20.10;99.90;;;;;;2075837;28;20480;-72
2023/09/17 04:13:20;;;;;;;20.02;18.00;;;20.00;99.90;;;;;;2077117;28;20585;-72
2023/09/17 04:14:21;;;;;;;17.85;15.48;;;20.10;99.90;;;;;;2076048;28;20029;-72
2023/09/17 04:15:21;;;;;;;19.17;17.17;;;20.10;99.90;;;;;;2069456;28;20038;-72
2023/09/17 04:16:23;;;;;;;18.73;16.80;;;20.00;99.90;;;;;;2057540;28;20526;-72
2023/09/17 04:17:24;;;;;;;18.80;17.08;;;20.00;99.90;;;;;;2066258;28;20397;-72
2023/09/17 04:18:25;;;;;;;18.58;16.73;;;20.00;99.90;;;;;;2074798;28;20412;-72
2023/09/17 04:19:27;;;;;;;19.67;17.73;;;20.00;99.90;;;;;;2075604;28;20021;-72
2023/09/17 04:20:28;;;;;;;20.33;18.05;;;20.00;99.90;;;;;;2075760;28;20087;-72
2023/09/17 04:21:28;;;;;;;18.33;16.42;;;20.00;99.90;;;;;;2075545;28;20034;-72
2023/09/17 04:22:29;;;;;;;18.95;16.92;;;20.00;99.90;;;;;;2077372;28;20021;-72
2023/09/17 04:23:30;;;;;;;20.33;18.35;;;20.00;99.90;;;;;;2075090;28;20029;-72
2023/09/17 04:24:31;;;;;;;20.15;18.05;;;20.00;99.90;;;;;;2078086;28;20025;-72
2023/09/17 04:25:34;;;;;;;20.08;17.95;;;20.00;99.90;;;;;;2076288;28;20028;-72
2023/09/17 04:26:36;;;;;;;20.02;18.13;;;19.90;99.90;;;;;;2078722;28;20029;-73
2023/09/17 04:27:41;;;;;;;20.42;18.27;;;19.90;99.90;;;;;;2077552;28;20025;-72
2023/09/17 04:28:43;;;;;;;19.42;17.52;;;19.90;99.90;;;;;;2077038;28;20057;-72
2023/09/17 04:29:43;;;;;;;23.40;18.20;;;19.90;99.90;;;;;;2077751;28;20029;-72
2023/09/17 04:30:44;;;;;;;21.10;18.90;;;19.90;99.90;;;;;;2076770;28;20108;-72
2023/09/17 04:31:46;;;;;;;20.08;18.02;;;19.90;99.90;;;;;;2077324;28;20029;-72
2023/09/17 04:32:48;;;;;;;20.33;18.05;;;19.80;99.90;;;;;;2077687;28;20039;-72
2023/09/17 04:33:48;;;;;;;18.95;17.05;;;19.80;99.90;;;;;;2077755;28;20022;-72
2023/09/17 04:34:49;;;;;;;19.65;17.77;;;19.80;99.90;;;;;;2076012;28;20040;-72
2023/09/17 04:35:58;;;;;;;19.25;17.55;;;19.90;99.90;;;;;;2077552;28;20060;-72
2023/09/17 04:37:00;;;;;;;19.20;17.40;;;19.90;99.90;;;;;;2078054;28;20026;-72
2023/09/17 04:38:00;;;;;;;19.92;17.98;;;19.80;99.90;;;;;;2077355;28;20036;-72
2023/09/17 04:39:01;;;;;;;19.75;17.63;;;19.90;99.90;;;;;;2077413;28;20026;-72
2023/09/17 04:40:08;;;;;;;20.92;18.20;;;19.80;99.90;;;;;;2077248;28;20068;-72
2023/09/17 04:41:09;;;;;;;21.45;19.42;;;19.80;99.90;;;;;;2076514;28;20033;-72
2023/09/17 04:42:09;;;;;;;20.70;18.80;;;19.80;99.90;;;;;;2077006;28;20658;-72
2023/09/17 04:43:10;;;;;;;20.15;18.15;;;19.80;99.90;;;;;;2079007;28;20087;-72
2023/09/17 04:44:11;;;;;;;21.02;19.05;;;19.80;99.90;;;;;;2078286;28;20969;-72
2023/09/17 04:45:19;;;;;;;20.30;18.50;;;19.80;99.90;;;;;;2067235;28;20030;-72
2023/09/17 04:46:19;;;;;;;21.02;18.92;;;19.80;99.90;;;;;;2070709;28;20216;-72
2023/09/17 04:47:20;;;;;;;20.40;18.50;;;19.80;99.90;;;;;;2077913;28;20045;-72
2023/09/17 04:48:20;;;;;;;20.50;18.45;;;19.70;99.90;;;;;;2076181;28;20033;-72
2023/09/17 04:49:21;;;;;;;22.60;20.40;;;19.70;99.90;;;;;;2076817;28;20037;-72
2023/09/17 04:50:21;;;;;;;20.95;18.70;;;19.70;99.90;;;;;;2077602;28;20122;-72
2023/09/17 04:51:22;;;;;;;20.15;18.17;;;19.70;99.90;;;;;;2074865;28;20085;-72
2023/09/17 04:52:22;;;;;;;19.67;17.58;;;19.70;99.90;;;;;;2070866;28;20429;-72
2023/09/17 04:53:23;;;;;;;21.17;19.20;;;19.70;99.90;;;;;;2070797;28;20148;-72
2023/09/17 04:54:24;;;;;;;21.20;19.10;;;19.70;99.90;;;;;;2077637;28;20071;-72
2023/09/17 04:55:24;;;;;;;21.25;19.15;;;19.70;99.90;;;;;;2069675;28;20029;-72
2023/09/17 04:56:25;;;;;;;19.75;17.80;;;19.70;99.90;;;;;;2067995;28;20025;-72
2023/09/17 04:57:26;;;;;;;22.40;20.15;;;19.70;99.90;;;;;;2077729;28;20717;-72
2023/09/17 04:58:26;;;;;;;21.60;19.30;;;19.70;99.90;;;;;;2078090;28;20136;-72
2023/09/17 04:59:28;;;;;;;22.08;19.17;;;19.70;99.90;;;;;;2076680;28;20029;-71
2023/09/17 05:00:29;;;;;;;21.58;19.27;;;19.70;99.90;;;;;;2078277;28;20021;-71
2023/09/17 05:01:30;;;;;;;22.52;20.52;;;19.70;99.90;;;;;;2075591;28;20099;-71
2023/09/17 05:02:30;;;;;;;24.48;20.25;;;19.70;99.90;;;;;;2076683;28;20026;-71
2023/09/17 05:03:31;;;;;;;21.05;19.02;;;19.60;99.90;;;;;;2076628;28;20033;-72
2023/09/17 05:04:31;;;;;;;20.35;18.35;;;19.70;99.90;;;;;;2076706;28;20033;-72
2023/09/17 05:05:32;;;;;;;21.92;19.75;;;19.70;99.90;;;;;;2078353;28;20104;-72
2023/09/17 05:06:33;;;;;;;22.70;20.15;;;19.70;99.90;;;;;;2077330;28;20022;-71
2023/09/17 05:07:33;;;;;;;22.90;20.58;;;19.70;99.90;;;;;;2078671;28;20030;-72
2023/09/17 05:08:34;;;;;;;19.30;17.50;;;19.70;99.90;;;;;;2077415;28;20108;-72
2023/09/17 05:09:34;;;;;;;21.17;18.98;;;19.70;99.90;;;;;;2068106;28;20081;-72
2023/09/17 05:10:35;;;;;;;19.73;17.77;;;19.70;99.90;;;;;;2066981;28;20034;-72
2023/09/17 05:11:35;;;;;;;20.83;18.75;;;19.70;99.90;;;;;;2076802;28;20038;-72